РУС

ENG

 
  Pireps - S7
 

Рейс SBI1115

  • Выполнял: Dmitry Schcurov
  • Аэропорт отправления: Domodedovo Airport (UUDD)
  • Аэропорт назначения: Voronezh (UUOO)
  • Тип ВС: E170 (VQ-BYK)
  • Время полёта: 04.30
  • Дата полёта: 23.04.2020
  • Маршрут: DK FV R11 TS R363 TE
  • Статус: Одобрен

Детали полёта
Gross Revenue:
(64 load / $ 80.00 per unit
$ 5, 120.00
Fuel Cost:
(1740 fuel used @ 5.1 / unit)
$ 8, 874.00


Дополнительная информация о полёте:

Лог

Aircraft Used in flight is Embraer 170 Air Canada
12:05 Beacon Lights ON at 600 AGL
12:05 Brakes are Released
12:06 Engine 1 Started
12:07 Engine 2 Started
12:07 Brakes are On
12:08Flaps 1 Selected at 600ft and 0kts
12:08Flaps 2 Selected at 600ft and 0kts
12:09 Brakes are Released
12:09 Taxi Lights ON at 600 AGL
12:14 Strobe Lights ON at 600 AGL
12:14 Landing Lights ON at 600 AGL
12:14 Taxi Lights OFF at 600 AGL
12:15 You Took off @ 144 Knots and Flaps at Position 2
Departure Weather
UUDD 230900Z 30010G15MPS 270V330 9999 SCT043 09/M15 Q1008 WS R32L R32L/CLRD60 NOSIG
12:15 Landing Gear Up @ 151 Knots and 640 Feet
12:16Flaps 1 Selected at 3410ft and 196kts
12:17 You exceeded maximum bank angle
12:18 Landing Lights OFF at 8330 AGL
12:18Flaps Retracted at 8510ft and 206kts
12:18 Below 10000 feet you are not allowed to go over 250 knots
12:50 Landing Lights ON at 6140 AGL
12:51Flaps 1 Selected at 4060ft and 214kts
12:53Flaps 2 Selected at 2600ft and 177kts
12:53Flaps 3 Selected at 2600ft and 177kts
12:55Flaps 4 Selected at 2470ft and 146kts
12:55 Landing Gear Down @ 148 Knots and 2470 Feet
12:55Flaps 5 Selected at 2390ft and 145kts
12:56Flaps 6 Selected at 1850ft and 141kts
12:58 You Landed @ 132 Knots and with -200 Vertical Speed
Arrival Weather
UUOO 230800Z 28008MPS 250V320 9999 BKN040 09/M11 Q1013 R30/090070 NOSIG RMK QFE747
12:59 Taxiing to gate
13:00Flaps Retracted at 520ft and 26kts
13:00 Landing Lights OFF at 520 AGL
13:00 Taxi Lights ON at 520 AGL
13:00 Strobe Lights OFF at 520 AGL
13:05 Brakes are On
13:05 Taxi Lights OFF at 520 AGL
13:05 Beacon Lights OFF at 520 AGL
13:05 Engine 1 Stoped
13:05 Engine 2 Stoped
Pirep logged with S7 Tracking 1.0.0.14



Общая оценка полета : 100%




Route Map



 
 
   
 
Новости

03.09.2020 - Полеты в MFS 2020

Спешим сообщить вам, что теперь наш S7 Pad поддерживается для полетов в новом симуляторе MFS 2020. В разделе Загрузки вы найдете FSUIPC7.rar
Инструкция для запуска прилагается!

   
 
Авторизация






Регистрация

Восстановить пароль?

Мы в соц. сетях

      



   
 





   
 


   
 


Яндекс.Метрика

www.va-s7.ru 2011-2020
Все права защищены.



Минуточку внимания!
Сайт va-s7.ru не является коммерческим проектом. Мы не имеем отношения к торговым маркам "S7" и "Globus" и их представителям.
Эмблемы на сайте являются собственностью соответствующих компаний.

аэронавигационная метеорологическая и любая другая информация с данного ресурса ни в коем случае не должна использоваться для реальных полетов